Time;durP1;ratioP1;P1;durP2;ratioP2;P2;SDS_P1;SDS_P2;PMS_P1;PMS_P2;Temp;Humidity;BMP_temperature;BMP_pressure;BME280_temperature;BME280_humidity;BME280_pressure;Samples;Min_cycle;Max_cycle;Signal;HPM_P1;HPM_P2
2022/06/03 00:01:47;;;;;;;7.03;5.78;;;11.90;99.90;;;;;;5006268;28;20060;-69
2022/06/03 00:04:48;;;;;;;5.85;5.25;;;11.90;99.90;;;;;;5006004;28;20090;-65
2022/06/03 00:07:31;;;;;;;7.45;6.75;;;11.90;99.90;;;;;;5002877;28;20056;-65
2022/06/03 00:10:20;;;;;;;8.68;7.10;;;11.90;99.90;;;;;;5006136;28;20089;-67
2022/06/03 00:13:10;;;;;;;12.20;7.13;;;11.80;99.90;;;;;;5007217;28;20045;-67
2022/06/03 00:16:24;;;;;;;6.93;6.18;;;11.80;99.90;;;;;;4987312;28;20068;-67
2022/06/03 00:19:11;;;;;;;10.20;7.30;;;11.80;99.90;;;;;;5005228;28;20049;-68
2022/06/03 00:22:17;;;;;;;7.38;5.95;;;11.80;99.90;;;;;;5007953;28;20057;-66
2022/06/03 00:25:13;;;;;;;8.05;6.72;;;11.70;99.90;;;;;;4971562;28;20049;-67
2022/06/03 00:27:58;;;;;;;9.18;6.93;;;11.70;99.90;;;;;;5003535;28;20058;-68
2022/06/03 00:30:40;;;;;;;7.85;6.68;;;11.70;99.90;;;;;;5008115;28;20129;-67
2022/06/03 00:33:19;;;;;;;9.52;7.05;;;11.70;99.90;;;;;;5008423;28;20061;-65
2022/06/03 00:36:03;;;;;;;11.90;6.93;;;11.60;99.90;;;;;;5008303;28;20603;-65
2022/06/03 00:38:38;;;;;;;9.57;7.13;;;11.60;99.90;;;;;;5005331;28;20386;-68
2022/06/03 00:41:25;;;;;;;7.88;6.53;;;11.60;99.90;;;;;;5011705;28;20726;-68
2022/06/03 00:44:20;;;;;;;9.60;6.88;;;11.60;99.90;;;;;;5009374;28;20057;-66
2022/06/03 00:47:05;;;;;;;9.10;6.90;;;11.60;99.90;;;;;;5004034;28;20135;-66
2022/06/03 00:49:39;;;;;;;9.70;6.63;;;11.60;99.90;;;;;;5009744;28;20302;-68
2022/06/03 00:52:12;;;;;;;7.93;7.05;;;11.50;99.90;;;;;;5009039;28;20053;-66
2022/06/03 00:55:16;;;;;;;9.30;7.90;;;11.50;99.90;;;;;;5010931;28;20083;-66
2022/06/03 00:58:19;;;;;;;9.32;7.00;;;11.50;99.90;;;;;;5012269;28;20053;-66
2022/06/03 01:01:21;;;;;;;8.38;7.22;;;11.50;99.90;;;;;;5008779;28;20050;-66
2022/06/03 01:04:03;;;;;;;12.45;8.07;;;11.50;99.90;;;;;;4988808;28;20053;-71
2022/06/03 01:06:52;;;;;;;10.05;8.10;;;11.50;99.90;;;;;;5008305;28;20160;-66
2022/06/03 01:09:29;;;;;;;11.48;7.85;;;11.50;99.90;;;;;;5006225;28;20058;-67
2022/06/03 01:12:03;;;;;;;10.57;7.25;;;11.40;99.90;;;;;;5006812;28;20049;-66
2022/06/03 01:14:42;;;;;;;11.05;7.85;;;11.40;99.90;;;;;;5011423;28;20051;-67
2022/06/03 01:17:26;;;;;;;11.30;8.40;;;11.40;99.90;;;;;;5006340;28;20803;-66
2022/06/03 01:20:11;;;;;;;9.70;8.68;;;11.40;99.90;;;;;;5006570;28;20049;-65
2022/06/03 01:23:08;;;;;;;11.98;8.13;;;11.40;99.90;;;;;;5010714;28;20057;-66
2022/06/03 01:26:05;;;;;;;13.55;8.75;;;11.40;99.90;;;;;;5005186;28;20098;-65
2022/06/03 01:29:10;;;;;;;9.02;7.85;;;11.40;99.90;;;;;;5007083;28;20072;-65
2022/06/03 01:32:05;;;;;;;9.90;7.53;;;11.30;99.90;;;;;;5009902;28;20049;-68
2022/06/03 01:35:05;;;;;;;10.13;7.80;;;11.30;99.90;;;;;;5009838;28;20054;-65
2022/06/03 01:38:10;;;;;;;9.18;8.05;;;11.30;99.90;;;;;;5011617;28;20053;-66
2022/06/03 01:41:13;;;;;;;15.00;7.70;;;11.30;99.90;;;;;;5006515;28;21559;-69
2022/06/03 01:44:03;;;;;;;11.63;8.15;;;11.30;99.90;;;;;;4942473;28;20054;-68
2022/06/03 01:46:59;;;;;;;14.90;8.30;;;11.30;99.90;;;;;;5007164;28;20049;-68
2022/06/03 01:49:35;;;;;;;11.38;8.25;;;11.30;99.90;;;;;;5007747;28;20053;-68
2022/06/03 01:52:29;;;;;;;13.27;9.07;;;11.20;99.90;;;;;;5006257;28;20053;-66
2022/06/03 01:55:22;;;;;;;10.55;8.30;;;11.20;99.90;;;;;;5022505;28;21107;-68
2022/06/03 01:58:07;;;;;;;13.52;9.52;;;11.20;99.90;;;;;;5007297;28;20053;-67
2022/06/03 02:00:38;;;;;;;12.65;9.13;;;11.20;99.90;;;;;;5009075;28;20052;-66
2022/06/03 02:03:23;;;;;;;13.05;10.05;;;11.20;99.90;;;;;;5008833;28;20050;-68
2022/06/03 02:06:15;;;;;;;16.67;10.57;;;11.20;99.90;;;;;;5012427;28;20924;-69
2022/06/03 02:09:19;;;;;;;11.15;8.32;;;11.30;99.90;;;;;;5005288;28;20054;-66
2022/06/03 02:11:58;;;;;;;14.75;9.30;;;11.30;99.90;;;;;;5006602;28;20061;-67
2022/06/03 02:15:15;;;;;;;15.55;10.73;;;11.30;99.90;;;;;;5001668;28;20118;-68
2022/06/03 02:17:57;;;;;;;14.50;9.70;;;11.30;99.90;;;;;;5003753;28;20059;-66
2022/06/03 02:20:36;;;;;;;17.08;9.85;;;11.30;99.90;;;;;;4982913;28;20045;-68
2022/06/03 02:23:06;;;;;;;16.23;10.40;;;11.30;99.90;;;;;;5007973;28;20060;-68
2022/06/03 02:25:59;;;;;;;11.80;9.02;;;11.30;99.90;;;;;;4990514;28;20045;-66
2022/06/03 02:28:48;;;;;;;11.82;9.15;;;11.30;99.90;;;;;;5002688;28;20057;-69
2022/06/03 02:31:36;;;;;;;15.05;9.75;;;11.30;99.90;;;;;;5009585;28;20071;-67
2022/06/03 02:34:29;;;;;;;15.32;9.80;;;11.40;99.90;;;;;;5006037;28;21875;-66
2022/06/03 02:37:30;;;;;;;12.65;9.65;;;11.40;99.90;;;;;;5007014;28;20092;-66
2022/06/03 02:40:16;;;;;;;14.75;9.48;;;11.40;99.90;;;;;;5005334;28;20056;-66
2022/06/03 02:43:12;;;;;;;11.20;8.38;;;11.40;99.90;;;;;;5008486;28;20433;-66
2022/06/03 02:46:21;;;;;;;11.38;8.68;;;11.50;99.90;;;;;;5005331;28;20146;-66
2022/06/03 02:49:23;;;;;;;10.30;8.48;;;11.50;99.90;;;;;;5009026;28;20053;-67
2022/06/03 02:52:15;;;;;;;13.35;8.45;;;11.60;99.90;;;;;;5009465;28;20082;-66
2022/06/03 02:54:54;;;;;;;10.60;8.95;;;11.50;99.90;;;;;;5006260;28;20049;-68
2022/06/03 02:57:21;;;;;;;10.25;8.70;;;11.50;99.90;;;;;;5010652;28;20050;-65
2022/06/03 03:00:17;;;;;;;11.60;8.15;;;11.60;99.90;;;;;;5005143;28;20053;-69
2022/06/03 03:03:27;;;;;;;9.68;7.20;;;11.50;99.90;;;;;;5005591;28;20053;-68
2022/06/03 03:06:19;;;;;;;11.10;7.68;;;11.50;99.90;;;;;;5007468;28;20061;-67
2022/06/03 03:09:01;;;;;;;14.43;8.57;;;11.50;99.90;;;;;;5009112;28;20049;-66
2022/06/03 03:11:51;;;;;;;11.43;7.60;;;11.50;99.90;;;;;;5008760;28;20084;-67
2022/06/03 03:14:26;;;;;;;12.18;6.90;;;11.50;99.90;;;;;;5005391;28;20123;-67
2022/06/03 03:16:58;;;;;;;9.25;6.78;;;11.50;99.90;;;;;;5006086;28;20123;-66
2022/06/03 03:20:05;;;;;;;8.20;6.32;;;11.50;99.90;;;;;;5018258;28;20190;-65
2022/06/03 03:22:35;;;;;;;10.48;6.30;;;11.50;99.90;;;;;;5007697;28;20115;-65
2022/06/03 03:25:01;;;;;;;10.07;6.80;;;11.50;99.90;;;;;;5005561;28;20053;-67
2022/06/03 03:27:52;;;;;;;12.07;8.25;;;11.50;99.90;;;;;;5008567;28;20211;-67
2022/06/03 03:30:28;;;;;;;7.10;5.60;;;11.50;99.90;;;;;;5007399;28;20107;-67
2022/06/03 03:32:58;;;;;;;6.90;6.20;;;11.50;99.90;;;;;;5006209;28;20448;-66
2022/06/03 03:35:45;;;;;;;10.55;6.32;;;11.50;99.90;;;;;;5005854;28;20046;-65
2022/06/03 03:38:46;;;;;;;10.07;6.05;;;11.50;99.90;;;;;;5006621;28;20137;-67
2022/06/03 03:41:43;;;;;;;11.25;6.47;;;11.60;99.90;;;;;;5007845;28;20474;-65
2022/06/03 03:44:34;;;;;;;9.95;7.35;;;11.60;99.90;;;;;;5003248;28;20150;-69
2022/06/03 03:47:11;;;;;;;8.32;6.93;;;11.70;99.90;;;;;;5006911;28;21656;-67
2022/06/03 03:50:09;;;;;;;13.80;7.82;;;11.70;99.90;;;;;;5002594;28;20054;-68
2022/06/03 03:52:48;;;;;;;11.35;7.80;;;11.70;99.90;;;;;;5006955;28;20057;-66
2022/06/03 03:55:53;;;;;;;9.63;7.53;;;11.70;99.90;;;;;;5007075;28;20135;-68
2022/06/03 03:58:20;;;;;;;9.20;7.63;;;11.70;99.90;;;;;;5005202;28;20605;-67
2022/06/03 04:00:59;;;;;;;12.57;9.02;;;11.70;99.90;;;;;;5007075;28;20049;-68
2022/06/03 04:04:00;;;;;;;14.05;7.95;;;11.80;99.90;;;;;;5009357;28;20060;-67
2022/06/03 04:07:05;;;;;;;11.75;6.95;;;11.80;99.90;;;;;;5006828;28;20052;-67
2022/06/03 04:09:47;;;;;;;12.75;9.77;;;11.80;99.90;;;;;;5004294;28;20045;-67
2022/06/03 04:12:33;;;;;;;10.35;9.32;;;11.80;99.90;;;;;;5005206;28;20061;-68
2022/06/03 04:15:31;;;;;;;9.95;7.88;;;11.80;99.90;;;;;;5005684;28;20049;-66
2022/06/03 04:18:36;;;;;;;10.38;8.60;;;11.90;99.90;;;;;;5005453;28;20463;-66
2022/06/03 04:21:47;;;;;;;11.95;7.50;;;12.00;99.90;;;;;;5003777;28;20102;-68
2022/06/03 04:24:32;;;;;;;11.02;8.20;;;12.00;99.90;;;;;;4953244;28;20157;-66
2022/06/03 04:27:17;;;;;;;9.52;7.22;;;11.90;99.90;;;;;;5003942;28;20095;-67
2022/06/03 04:30:08;;;;;;;9.25;7.38;;;11.90;99.90;;;;;;5004281;28;20118;-66
2022/06/03 04:32:44;;;;;;;7.45;5.85;;;11.90;99.90;;;;;;5005104;28;20127;-66
2022/06/03 04:35:44;;;;;;;8.02;6.38;;;11.90;99.90;;;;;;5002874;28;20168;-69
2022/06/03 04:38:14;;;;;;;8.43;5.95;;;12.00;99.90;;;;;;4977843;28;20077;-67
2022/06/03 04:41:02;;;;;;;7.60;5.82;;;12.00;99.90;;;;;;5006332;28;20874;-66
2022/06/03 04:43:37;;;;;;;11.30;6.20;;;12.10;99.90;;;;;;5008490;28;20154;-67
2022/06/03 04:46:21;;;;;;;6.93;5.72;;;12.10;99.90;;;;;;4982367;28;22316;-73
2022/06/03 04:48:54;;;;;;;8.02;6.38;;;12.20;99.90;;;;;;5007191;28;20072;-67
2022/06/03 04:51:40;;;;;;;8.95;6.25;;;12.20;99.90;;;;;;4984960;28;20042;-68
2022/06/03 04:54:35;;;;;;;11.20;6.25;;;12.30;99.90;;;;;;4999836;28;20067;-68
2022/06/03 04:57:29;;;;;;;6.38;5.65;;;12.30;99.90;;;;;;5005144;28;20054;-68
2022/06/03 05:00:22;;;;;;;6.32;5.03;;;12.30;99.90;;;;;;5001324;28;20132;-66
2022/06/03 05:03:13;;;;;;;6.13;5.53;;;12.40;99.90;;;;;;5005795;28;20080;-70
2022/06/03 05:06:17;;;;;;;7.50;5.18;;;12.40;99.90;;;;;;5004630;28;20136;-67
2022/06/03 05:09:22;;;;;;;11.73;5.35;;;12.40;99.90;;;;;;4999964;28;20196;-68
2022/06/03 05:12:01;;;;;;;6.97;5.88;;;12.50;99.90;;;;;;5004996;28;20470;-65
2022/06/03 05:14:40;;;;;;;8.98;5.40;;;12.50;99.90;;;;;;5000592;28;20045;-68
2022/06/03 05:17:28;;;;;;;10.82;5.88;;;12.50;99.90;;;;;;4999832;28;20116;-67
2022/06/03 05:20:33;;;;;;;8.55;5.05;;;12.50;99.90;;;;;;4985070;28;20073;-68
2022/06/03 05:23:31;;;;;;;8.25;6.22;;;12.50;99.90;;;;;;5002166;28;20134;-68
2022/06/03 05:26:43;;;;;;;9.48;5.78;;;12.50;99.90;;;;;;4997525;28;20079;-68
2022/06/03 05:29:34;;;;;;;6.78;4.95;;;12.50;99.90;;;;;;5003956;28;20135;-69
2022/06/03 05:32:29;;;;;;;12.25;6.72;;;12.60;99.90;;;;;;5004565;28;20056;-67
2022/06/03 05:35:14;;;;;;;7.53;5.13;;;12.60;99.90;;;;;;5002225;28;20108;-67
2022/06/03 05:38:02;;;;;;;7.13;5.47;;;12.70;99.90;;;;;;5007043;28;20222;-69
2022/06/03 05:40:39;;;;;;;9.27;5.07;;;12.70;99.90;;;;;;4999138;28;20163;-67
2022/06/03 05:43:17;;;;;;;4.72;4.25;;;12.80;99.90;;;;;;5006308;28;20053;-69
2022/06/03 05:46:02;;;;;;;4.55;4.13;;;12.80;99.90;;;;;;5006725;28;20061;-68
2022/06/03 05:48:56;;;;;;;5.80;4.40;;;12.80;99.90;;;;;;5003994;28;21477;-67
2022/06/03 05:51:32;;;;;;;6.13;4.53;;;12.80;99.90;;;;;;5007119;28;20155;-69
2022/06/03 05:54:24;;;;;;;8.02;4.47;;;12.80;99.90;;;;;;5004097;28;20168;-67
2022/06/03 05:57:10;;;;;;;5.85;4.70;;;12.80;99.90;;;;;;5002742;28;20131;-68
2022/06/03 06:00:09;;;;;;;4.85;3.95;;;12.80;99.90;;;;;;5008803;28;20088;-66
2022/06/03 06:03:03;;;;;;;4.80;4.10;;;12.80;99.90;;;;;;5006683;28;20057;-67
2022/06/03 06:05:39;;;;;;;12.48;5.47;;;12.80;99.90;;;;;;5003019;28;20060;-66
2022/06/03 06:08:15;;;;;;;8.30;4.47;;;12.70;99.90;;;;;;5006477;28;20062;-69
2022/06/03 06:11:04;;;;;;;5.35;4.25;;;12.70;99.90;;;;;;5006646;28;20099;-66
2022/06/03 06:13:52;;;;;;;6.25;4.78;;;12.70;99.90;;;;;;5002763;28;20144;-66
2022/06/03 06:16:22;;;;;;;5.75;4.00;;;12.70;99.90;;;;;;5007089;28;20057;-66
2022/06/03 06:18:52;;;;;;;9.05;3.85;;;12.80;99.90;;;;;;5007767;28;20783;-69
2022/06/03 06:21:50;;;;;;;6.40;3.42;;;12.90;99.90;;;;;;5007021;28;20149;-68
2022/06/03 06:24:35;;;;;;;5.05;4.60;;;12.90;99.90;;;;;;5004835;28;21323;-69
2022/06/03 06:27:29;;;;;;;3.67;3.38;;;12.90;99.90;;;;;;5008367;28;20381;-68
2022/06/03 06:30:09;;;;;;;3.08;2.80;;;12.90;99.90;;;;;;5004993;28;20053;-68
2022/06/03 06:33:00;;;;;;;3.22;2.67;;;12.90;99.90;;;;;;5009463;28;20049;-66
2022/06/03 06:35:54;;;;;;;3.97;2.90;;;13.00;99.90;;;;;;5008938;28;20503;-69
2022/06/03 06:38:44;;;;;;;3.55;3.17;;;12.90;99.90;;;;;;5006588;28;20064;-66
2022/06/03 06:41:40;;;;;;;7.93;3.33;;;13.00;99.90;;;;;;5005945;28;20131;-69
2022/06/03 06:44:20;;;;;;;4.95;3.15;;;12.90;99.90;;;;;;4985398;28;20303;-66
2022/06/03 06:47:10;;;;;;;10.65;4.57;;;12.90;99.90;;;;;;5007691;28;20085;-68
2022/06/03 06:49:47;;;;;;;9.68;3.47;;;12.90;99.90;;;;;;5007811;28;20064;-68
2022/06/03 06:52:50;;;;;;;6.22;3.58;;;12.90;99.90;;;;;;5006765;28;20333;-68
2022/06/03 06:55:41;;;;;;;5.15;4.00;;;13.00;99.90;;;;;;5006535;28;20203;-65
2022/06/03 06:58:20;;;;;;;4.35;3.72;;;13.00;99.90;;;;;;5003792;28;20053;-68
2022/06/03 07:00:50;;;;;;;7.70;3.97;;;13.10;99.90;;;;;;5002901;28;20057;-65
2022/06/03 07:03:45;;;;;;;6.15;4.25;;;13.10;99.90;;;;;;5007923;28;20648;-66
2022/06/03 07:06:17;;;;;;;8.38;4.78;;;13.10;99.90;;;;;;5003653;28;20124;-66
2022/06/03 07:08:51;;;;;;;5.22;4.13;;;13.20;99.90;;;;;;5005541;28;20775;-68
2022/06/03 07:11:26;;;;;;;6.22;4.80;;;13.30;99.90;;;;;;5007478;28;20053;-68
2022/06/03 07:13:58;;;;;;;7.22;3.92;;;13.30;99.90;;;;;;5004605;28;21410;-67
2022/06/03 07:19:50;;;;;;;6.28;4.20;;;13.40;99.90;;;;;;5006180;28;20475;-68
2022/06/03 07:22:33;;;;;;;4.93;3.78;;;13.50;99.90;;;;;;4997859;28;20521;-67
2022/06/03 07:25:19;;;;;;;10.88;4.30;;;13.50;99.90;;;;;;4980768;28;20649;-69
2022/06/03 07:28:08;;;;;;;5.43;4.90;;;13.50;99.90;;;;;;5008222;28;20144;-67
2022/06/03 07:30:45;;;;;;;3.80;3.40;;;13.40;99.90;;;;;;5008783;28;20065;-69
2022/06/03 07:33:15;;;;;;;11.63;5.03;;;13.40;99.90;;;;;;5006934;28;20731;-70
2022/06/03 07:36:01;;;;;;;6.60;3.92;;;13.40;99.90;;;;;;5005893;28;20053;-68
2022/06/03 07:38:37;;;;;;;4.40;3.97;;;13.30;99.90;;;;;;5002694;28;20740;-68
2022/06/03 07:41:11;;;;;;;4.05;3.38;;;13.40;99.90;;;;;;5005951;28;20302;-69
2022/06/03 07:43:49;;;;;;;4.72;4.28;;;13.30;99.90;;;;;;5008357;28;20085;-66
2022/06/03 07:46:41;;;;;;;5.18;4.68;;;13.20;99.90;;;;;;5002725;28;20056;-67
2022/06/03 07:49:08;;;;;;;3.67;3.17;;;13.20;99.90;;;;;;5007526;28;20380;-66
2022/06/03 07:51:46;;;;;;;7.55;3.72;;;13.20;99.90;;;;;;5006725;28;20174;-68
2022/06/03 07:54:26;;;;;;;5.78;3.45;;;13.20;99.90;;;;;;5000176;28;20622;-69
2022/06/03 07:57:24;;;;;;;4.80;3.42;;;13.30;99.90;;;;;;5008437;28;20524;-69
2022/06/03 07:59:56;;;;;;;5.40;3.45;;;13.30;99.90;;;;;;5006172;28;20056;-68
2022/06/03 08:02:23;;;;;;;5.80;3.05;;;13.30;99.90;;;;;;5006689;28;20057;-66
2022/06/03 08:05:10;;;;;;;6.13;3.17;;;13.30;99.90;;;;;;5005296;28;20053;-68
2022/06/03 08:13:16;;;;;;;3.50;2.60;;;13.20;99.90;;;;;;5006252;28;20091;-68
2022/06/03 08:15:57;;;;;;;3.45;2.83;;;13.20;99.90;;;;;;5003829;28;20144;-66
2022/06/03 08:18:29;;;;;;;3.90;3.22;;;13.20;99.90;;;;;;5001732;28;20139;-68
2022/06/03 08:21:06;;;;;;;3.92;2.80;;;13.20;99.90;;;;;;5008417;28;20049;-66
2022/06/03 08:23:35;;;;;;;5.00;3.03;;;13.20;99.90;;;;;;5006040;28;21166;-68
2022/06/03 08:26:12;;;;;;;5.35;2.85;;;13.20;99.90;;;;;;4999723;28;20131;-65
2022/06/03 08:28:47;;;;;;;3.45;2.90;;;13.20;99.90;;;;;;5003598;28;20399;-67
2022/06/03 08:31:14;;;;;;;3.63;2.70;;;13.20;99.90;;;;;;5003716;28;20179;-68
2022/06/03 08:33:48;;;;;;;2.83;2.55;;;13.30;99.90;;;;;;5007601;28;20630;-68
2022/06/03 08:36:21;;;;;;;5.57;2.70;;;13.30;99.90;;;;;;5005557;28;20204;-71
2022/06/03 08:39:04;;;;;;;3.45;2.90;;;13.40;99.90;;;;;;5007251;28;20056;-66
2022/06/03 08:42:04;;;;;;;4.10;2.55;;;13.50;99.90;;;;;;5003035;28;20060;-69
2022/06/03 08:44:59;;;;;;;3.70;3.05;;;13.50;99.90;;;;;;4970364;28;20132;-67
2022/06/03 08:47:26;;;;;;;3.80;2.60;;;13.50;99.90;;;;;;4983002;28;20147;-66
2022/06/03 08:50:09;;;;;;;3.80;2.50;;;13.60;99.90;;;;;;5005662;28;20162;-67
2022/06/03 08:53:08;;;;;;;3.67;2.58;;;13.50;99.90;;;;;;5004970;28;20103;-66
2022/06/03 08:55:38;;;;;;;2.47;1.92;;;13.60;99.90;;;;;;4997202;28;20046;-68
2022/06/03 08:58:15;;;;;;;2.33;2.13;;;13.60;99.90;;;;;;5000132;28;20049;-66
2022/06/03 09:01:00;;;;;;;4.65;3.03;;;13.70;99.90;;;;;;5008855;28;20052;-67
2022/06/03 09:03:29;;;;;;;5.75;3.38;;;13.70;99.90;;;;;;5009652;28;20061;-66
2022/06/03 09:06:11;;;;;;;4.15;2.63;;;13.80;99.90;;;;;;5007263;28;20059;-67
2022/06/03 09:08:51;;;;;;;3.25;2.40;;;13.80;99.90;;;;;;5009750;28;20047;-67
2022/06/03 09:11:42;;;;;;;7.68;2.72;;;13.90;99.90;;;;;;5009472;28;20144;-66
2022/06/03 09:14:16;;;;;;;2.72;2.53;;;13.90;99.90;;;;;;5005470;28;20134;-68
2022/06/03 09:16:43;;;;;;;3.72;2.50;;;13.90;99.90;;;;;;5009663;28;20052;-67
2022/06/03 09:19:39;;;;;;;3.67;3.10;;;13.90;99.90;;;;;;5009055;28;20061;-66
2022/06/03 09:22:28;;;;;;;4.00;2.80;;;13.80;99.90;;;;;;5007605;28;20057;-68
2022/06/03 09:24:57;;;;;;;6.25;2.75;;;13.80;99.90;;;;;;5010117;28;20752;-66
2022/06/03 09:27:25;;;;;;;5.38;3.08;;;13.90;99.90;;;;;;5012787;28;20119;-68
2022/06/03 09:29:56;;;;;;;3.88;2.45;;;14.00;99.90;;;;;;5004098;28;20069;-69
2022/06/03 09:32:26;;;;;;;4.00;2.88;;;14.00;99.90;;;;;;5008526;28;20204;-66
2022/06/03 09:35:01;;;;;;;5.15;2.80;;;14.00;99.90;;;;;;5010091;28;20057;-67
2022/06/03 09:37:33;;;;;;;5.40;2.22;;;14.10;99.90;;;;;;5013090;28;20061;-69
2022/06/03 09:40:02;;;;;;;2.92;2.70;;;14.20;99.90;;;;;;5006916;28;20144;-67
2022/06/03 09:42:33;;;;;;;2.87;2.63;;;14.20;99.90;;;;;;5007598;28;21836;-68
2022/06/03 09:45:03;;;;;;;2.33;2.13;;;14.40;99.90;;;;;;5005744;28;20176;-66
2022/06/03 09:47:32;;;;;;;3.47;2.85;;;14.50;99.90;;;;;;5010444;28;20068;-67
2022/06/03 09:49:59;;;;;;;5.15;2.35;;;14.60;99.90;;;;;;5007319;28;20057;-66
2022/06/03 09:52:28;;;;;;;3.65;3.35;;;14.70;99.90;;;;;;5008088;28;20160;-67
2022/06/03 09:55:00;;;;;;;2.83;2.63;;;14.90;99.90;;;;;;5009600;28;20222;-70
2022/06/03 09:57:38;;;;;;;6.03;3.65;;;15.00;99.90;;;;;;5014643;28;21312;-67
2022/06/03 10:00:21;;;;;;;5.22;3.53;;;14.90;99.90;;;;;;5009831;28;20676;-67
2022/06/03 10:02:48;;;;;;;10.38;3.30;;;15.00;99.90;;;;;;5001101;28;20052;-67
2022/06/03 10:05:17;;;;;;;5.45;3.40;;;15.00;99.90;;;;;;5007464;28;20054;-67
2022/06/03 10:07:47;;;;;;;3.00;2.70;;;15.00;99.90;;;;;;5009238;28;21601;-67
2022/06/03 10:13:07;;;;;;;3.80;3.05;;;15.10;99.90;;;;;;5007748;28;20076;-66
2022/06/03 10:15:44;;;;;;;3.90;2.53;;;14.90;99.90;;;;;;5010751;28;20156;-69
2022/06/03 10:18:14;;;;;;;5.03;2.83;;;14.90;99.90;;;;;;5006176;28;20059;-65
2022/06/03 10:20:43;;;;;;;3.67;3.38;;;14.90;99.90;;;;;;5003998;28;20049;-69
2022/06/03 10:23:11;;;;;;;4.05;3.20;;;14.90;99.90;;;;;;5006851;28;20156;-71
2022/06/03 10:26:01;;;;;;;3.63;3.33;;;15.00;99.90;;;;;;5005068;28;20156;-65
2022/06/03 10:28:34;;;;;;;;;;;15.00;99.90;;;;;;5006131;28;20076;-68
2022/06/03 10:31:11;;;;;;;4.20;2.63;;;15.10;99.90;;;;;;5008364;28;19935;-68
2022/06/03 10:33:38;;;;;;;3.97;3.28;;;15.30;99.90;;;;;;5003307;28;20179;-72
2022/06/03 10:36:06;;;;;;;2.95;2.75;;;15.40;99.90;;;;;;4994869;28;20060;-71
2022/06/03 10:38:36;;;;;;;5.32;3.47;;;15.40;99.90;;;;;;5003576;28;20045;-67
2022/06/03 10:41:08;;;;;;;3.20;2.90;;;15.40;99.90;;;;;;5006365;28;20057;-66
2022/06/03 10:43:36;;;;;;;5.20;3.00;;;15.30;99.90;;;;;;5005965;28;20049;-70
2022/06/03 10:46:13;;;;;;;5.28;3.33;;;15.40;99.90;;;;;;5007025;28;20060;-67
2022/06/03 10:48:41;;;;;;;4.15;2.70;;;15.40;99.90;;;;;;5005716;28;20890;-70
2022/06/03 10:51:12;;;;;;;5.47;3.28;;;15.50;99.90;;;;;;5005755;28;20092;-67
2022/06/03 11:02:02;;;;;;;4.57;3.97;;;16.00;99.90;;;;;;5000660;28;20176;-67
2022/06/03 11:04:33;;;;;;;4.45;3.70;;;16.20;99.90;;;;;;5003245;28;20049;-71
2022/06/03 11:07:02;;;;;;;4.95;3.85;;;16.00;99.90;;;;;;5002776;28;20172;-70
2022/06/03 11:09:30;;;;;;;3.45;3.03;;;16.10;99.90;;;;;;5004939;28;20205;-68
2022/06/03 11:12:03;;;;;;;3.30;2.72;;;16.10;99.90;;;;;;5009373;28;20081;-68
2022/06/03 11:14:38;;;;;;;2.92;2.70;;;16.10;99.90;;;;;;5009606;28;20131;-66
2022/06/03 11:17:19;;;;;;;5.07;3.25;;;16.20;99.90;;;;;;5011694;28;20049;-71
2022/06/03 11:19:52;;;;;;;3.47;3.17;;;16.20;99.90;;;;;;5008970;28;20891;-67
2022/06/03 11:22:32;;;;;;;3.53;3.22;;;16.20;99.90;;;;;;5001437;28;20798;-72
2022/06/03 11:25:25;;;;;;;5.03;3.60;;;16.00;99.90;;;;;;5007347;28;20053;-66
2022/06/03 11:27:56;;;;;;;5.53;3.67;;;16.00;99.90;;;;;;5007567;28;20144;-68
2022/06/03 11:30:48;;;;;;;3.72;3.42;;;16.10;99.90;;;;;;5006605;28;20495;-66
2022/06/03 11:33:42;;;;;;;4.57;3.90;;;16.20;99.90;;;;;;5009407;28;20646;-68
2022/06/03 11:36:30;;;;;;;3.45;3.13;;;16.20;99.90;;;;;;4985447;28;21352;-70
2022/06/03 11:39:19;;;;;;;3.25;2.88;;;16.40;99.90;;;;;;5005683;28;20574;-70
2022/06/03 11:41:58;;;;;;;7.18;4.80;;;16.50;99.90;;;;;;5008184;28;20929;-67
2022/06/03 11:44:47;;;;;;;5.15;4.53;;;16.60;99.90;;;;;;5004834;28;20049;-68
2022/06/03 11:47:35;;;;;;;4.07;3.67;;;16.70;99.90;;;;;;5006295;28;20057;-68
2022/06/03 11:50:05;;;;;;;7.43;3.90;;;17.00;99.90;;;;;;5004972;28;20342;-66
2022/06/03 11:52:32;;;;;;;4.95;3.58;;;17.30;99.90;;;;;;5003754;28;21547;-68
2022/06/03 11:54:59;;;;;;;4.13;3.45;;;17.40;99.90;;;;;;5003931;28;20241;-67
2022/06/03 11:57:27;;;;;;;4.97;4.47;;;17.40;99.90;;;;;;5007615;28;20445;-69
2022/06/03 12:00:04;;;;;;;4.28;3.88;;;17.60;99.90;;;;;;5004444;28;20053;-67
2022/06/03 12:02:56;;;;;;;6.15;3.45;;;17.60;99.90;;;;;;5006259;28;20120;-67
2022/06/03 12:05:30;;;;;;;6.90;3.90;;;17.60;99.90;;;;;;5008067;28;20063;-66
2022/06/03 12:08:33;;;;;;;6.80;5.05;;;17.50;99.90;;;;;;5003661;28;20057;-68
2022/06/03 12:14:39;;;;;;;8.65;5.85;;;16.90;99.90;;;;;;5004855;28;20116;-67
2022/06/03 12:17:06;;;;;;;6.90;5.40;;;16.70;99.90;;;;;;5008631;28;20062;-70
2022/06/03 12:19:45;;;;;;;17.20;5.25;;;16.60;99.90;;;;;;5008742;28;20072;-69
2022/06/03 12:22:33;;;;;;;8.38;5.03;;;16.70;99.90;;;;;;5008010;28;20134;-68
2022/06/03 12:25:57;;;;;;;6.88;5.50;;;16.60;99.90;;;;;;5007676;28;20212;-69
2022/06/03 12:28:30;;;;;;;8.40;5.85;;;16.70;99.90;;;;;;4989260;28;20042;-66
2022/06/03 12:31:01;;;;;;;10.13;6.15;;;16.70;99.90;;;;;;5008072;28;20057;-70
2022/06/03 12:33:43;;;;;;;7.68;5.78;;;16.70;99.90;;;;;;5006813;28;20076;-68
2022/06/03 12:36:45;;;;;;;9.00;6.28;;;16.60;99.90;;;;;;5009788;28;20048;-73
2022/06/03 12:39:20;;;;;;;7.65;5.75;;;16.70;99.90;;;;;;5010035;28;20053;-69
2022/06/03 12:41:47;;;;;;;7.13;6.43;;;16.90;99.90;;;;;;5015946;28;20053;-70
2022/06/03 12:44:32;;;;;;;9.98;5.22;;;17.00;99.90;;;;;;5007441;28;20467;-72
2022/06/03 12:47:18;;;;;;;9.38;7.40;;;17.10;99.90;;;;;;5011125;28;20148;-68
2022/06/03 12:49:45;;;;;;;6.95;4.97;;;17.10;99.90;;;;;;5015080;28;20080;-70
2022/06/03 12:52:33;;;;;;;7.30;5.43;;;17.20;99.90;;;;;;5011752;28;20084;-68
2022/06/03 12:55:12;;;;;;;5.50;4.60;;;17.30;99.90;;;;;;4999553;28;20052;-71
2022/06/03 12:58:16;;;;;;;6.13;5.18;;;17.30;99.90;;;;;;5015606;28;20057;-67
2022/06/03 13:00:53;;;;;;;5.93;5.15;;;17.30;99.90;;;;;;4967452;28;20049;-69
2022/06/03 13:03:20;;;;;;;6.65;5.65;;;17.20;99.90;;;;;;5014056;28;20102;-69
2022/06/03 13:05:50;;;;;;;8.38;5.60;;;17.20;99.90;;;;;;5015588;28;20053;-68
2022/06/03 13:08:28;;;;;;;9.38;6.43;;;17.10;99.90;;;;;;5013270;28;20081;-67
2022/06/03 13:11:00;;;;;;;10.48;6.50;;;17.00;99.90;;;;;;5010298;28;20161;-71
2022/06/03 13:13:28;;;;;;;6.55;5.50;;;17.10;99.90;;;;;;5015957;28;20104;-69
2022/06/03 13:16:20;;;;;;;6.32;5.57;;;16.90;99.90;;;;;;5011932;28;20061;-71
2022/06/03 13:18:50;;;;;;;8.75;5.82;;;17.00;99.90;;;;;;5016104;28;20078;-71
2022/06/03 13:21:26;;;;;;;9.82;5.97;;;17.10;99.90;;;;;;5014561;28;20518;-72
2022/06/03 13:23:59;;;;;;;7.80;5.70;;;17.10;99.90;;;;;;5015068;28;21403;-68
2022/06/03 13:26:27;;;;;;;6.25;5.72;;;17.00;99.90;;;;;;5008262;28;20203;-73
2022/06/03 13:29:04;;;;;;;10.20;7.93;;;17.10;99.90;;;;;;5015395;28;20107;-67
2022/06/03 13:31:40;;;;;;;6.63;5.32;;;17.10;99.90;;;;;;5014581;28;20298;-71
2022/06/03 13:36:54;;;;;;;9.02;5.68;;;16.90;99.90;;;;;;5012719;28;20100;-68
2022/06/03 13:39:23;;;;;;;9.73;6.80;;;16.90;99.90;;;;;;5015261;28;20049;-68
2022/06/03 13:45:07;;;;;;;7.70;5.05;;;16.90;99.90;;;;;;5009222;28;20147;-68
2022/06/03 13:47:40;;;;;;;9.05;6.43;;;16.90;99.90;;;;;;5009844;28;20065;-69
2022/06/03 13:50:13;;;;;;;8.65;5.68;;;16.90;99.90;;;;;;5005336;28;20091;-69
2022/06/03 13:52:45;;;;;;;11.63;7.30;;;17.00;99.90;;;;;;5010676;28;20049;-72
2022/06/03 13:55:27;;;;;;;8.55;6.07;;;17.00;99.90;;;;;;5006031;28;20098;-70
2022/06/03 13:58:08;;;;;;;8.27;4.97;;;17.10;99.90;;;;;;5001654;28;20057;-70
2022/06/03 14:00:58;;;;;;;8.13;6.95;;;17.10;99.90;;;;;;5011415;28;20080;-67
2022/06/03 14:03:31;;;;;;;6.07;5.47;;;17.20;99.90;;;;;;4997755;28;20606;-70
2022/06/03 14:06:05;;;;;;;6.43;4.55;;;17.20;99.90;;;;;;5007016;28;20076;-69
2022/06/03 14:08:35;;;;;;;8.02;5.10;;;17.30;99.90;;;;;;5011210;28;20057;-69
2022/06/03 14:11:08;;;;;;;7.05;5.30;;;17.30;99.90;;;;;;5006241;28;20088;-68
2022/06/03 14:13:43;;;;;;;7.90;5.80;;;17.30;99.90;;;;;;5008168;28;20072;-69
2022/06/03 14:16:23;;;;;;;10.85;6.35;;;17.20;99.90;;;;;;5008704;28;20053;-66
2022/06/03 14:19:12;;;;;;;11.25;6.13;;;17.00;99.90;;;;;;5008254;28;20061;-69
2022/06/03 14:22:06;;;;;;;7.38;5.30;;;16.80;99.90;;;;;;5007852;28;20164;-67
2022/06/03 14:24:41;;;;;;;5.72;4.93;;;16.70;99.90;;;;;;5006867;28;20691;-68
2022/06/03 14:27:38;;;;;;;6.00;4.60;;;16.80;99.90;;;;;;5010185;28;20564;-70
2022/06/03 14:30:14;;;;;;;8.63;5.90;;;16.90;99.90;;;;;;5003401;28;20053;-68
2022/06/03 14:32:47;;;;;;;9.55;7.57;;;17.40;99.90;;;;;;5011265;28;21506;-69
2022/06/03 14:35:33;;;;;;;7.97;5.60;;;17.90;99.90;;;;;;5010319;28;20176;-70